sensor_id;sensor_type;location;lat;lon;timestamp;temperature;humidity
1800;DHT22;919;48.274;12.292;2023-06-10T00:00:40;15.40;99.90
1800;DHT22;919;48.274;12.292;2023-06-10T00:03:07;15.40;99.90
1800;DHT22;919;48.274;12.292;2023-06-10T00:05:36;15.40;99.90
1800;DHT22;919;48.274;12.292;2023-06-10T00:08:05;15.40;99.90
1800;DHT22;919;48.274;12.292;2023-06-10T00:10:33;15.40;99.90
1800;DHT22;919;48.274;12.292;2023-06-10T00:13:00;15.30;99.90
1800;DHT22;919;48.274;12.292;2023-06-10T00:15:27;15.30;99.90
1800;DHT22;919;48.274;12.292;2023-06-10T00:17:54;15.30;99.90
1800;DHT22;919;48.274;12.292;2023-06-10T00:20:21;15.30;99.90
1800;DHT22;919;48.274;12.292;2023-06-10T00:22:50;15.30;99.90
1800;DHT22;919;48.274;12.292;2023-06-10T00:25:18;15.30;99.90
1800;DHT22;919;48.274;12.292;2023-06-10T00:27:44;15.40;99.90
1800;DHT22;919;48.274;12.292;2023-06-10T00:30:12;15.40;99.90
1800;DHT22;919;48.274;12.292;2023-06-10T00:32:39;15.30;99.90
1800;DHT22;919;48.274;12.292;2023-06-10T00:35:06;15.30;99.90
1800;DHT22;919;48.274;12.292;2023-06-10T00:37:33;15.30;99.90
1800;DHT22;919;48.274;12.292;2023-06-10T00:40:03;15.30;99.90
1800;DHT22;919;48.274;12.292;2023-06-10T00:42:30;15.40;99.90
1800;DHT22;919;48.274;12.292;2023-06-10T00:44:57;15.40;99.90
1800;DHT22;919;48.274;12.292;2023-06-10T00:47:24;15.30;99.90
1800;DHT22;919;48.274;12.292;2023-06-10T00:49:51;15.30;99.90
1800;DHT22;919;48.274;12.292;2023-06-10T00:52:18;15.20;99.90
1800;DHT22;919;48.274;12.292;2023-06-10T00:54:46;15.20;99.90
1800;DHT22;919;48.274;12.292;2023-06-10T00:57:14;15.10;99.90
1800;DHT22;919;48.274;12.292;2023-06-10T00:59:41;15.00;99.90
1800;DHT22;919;48.274;12.292;2023-06-10T01:02:09;14.90;99.90
1800;DHT22;919;48.274;12.292;2023-06-10T01:04:36;14.90;99.90
1800;DHT22;919;48.274;12.292;2023-06-10T01:07:12;14.80;99.90
1800;DHT22;919;48.274;12.292;2023-06-10T01:09:47;14.80;99.90
1800;DHT22;919;48.274;12.292;2023-06-10T01:12:22;14.70;99.90
1800;DHT22;919;48.274;12.292;2023-06-10T01:14:54;14.70;99.90
1800;DHT22;919;48.274;12.292;2023-06-10T01:17:22;14.70;99.90
1800;DHT22;919;48.274;12.292;2023-06-10T01:19:54;14.70;99.90
1800;DHT22;919;48.274;12.292;2023-06-10T01:22:23;14.70;99.90
1800;DHT22;919;48.274;12.292;2023-06-10T01:24:50;14.70;99.90
1800;DHT22;919;48.274;12.292;2023-06-10T01:27:19;14.70;99.90
1800;DHT22;919;48.274;12.292;2023-06-10T01:29:52;14.70;99.90
1800;DHT22;919;48.274;12.292;2023-06-10T01:32:28;14.70;99.90
1800;DHT22;919;48.274;12.292;2023-06-10T01:34:57;14.60;99.90
1800;DHT22;919;48.274;12.292;2023-06-10T01:37:26;14.50;99.90
1800;DHT22;919;48.274;12.292;2023-06-10T01:39:55;14.40;99.90
1800;DHT22;919;48.274;12.292;2023-06-10T01:42:23;14.40;99.90
1800;DHT22;919;48.274;12.292;2023-06-10T01:44:50;14.40;99.90
1800;DHT22;919;48.274;12.292;2023-06-10T01:47:17;14.40;99.90
1800;DHT22;919;48.274;12.292;2023-06-10T01:49:44;14.30;99.90
1800;DHT22;919;48.274;12.292;2023-06-10T01:52:10;14.30;99.90
1800;DHT22;919;48.274;12.292;2023-06-10T01:54:38;14.40;99.90
1800;DHT22;919;48.274;12.292;2023-06-10T01:57:05;14.30;99.90
1800;DHT22;919;48.274;12.292;2023-06-10T01:59:32;14.30;99.90
1800;DHT22;919;48.274;12.292;2023-06-10T02:01:59;14.30;99.90
1800;DHT22;919;48.274;12.292;2023-06-10T02:04:26;14.30;99.90
1800;DHT22;919;48.274;12.292;2023-06-10T02:06:52;14.40;99.90
1800;DHT22;919;48.274;12.292;2023-06-10T02:09:21;14.40;99.90
1800;DHT22;919;48.274;12.292;2023-06-10T02:11:49;14.30;99.90
1800;DHT22;919;48.274;12.292;2023-06-10T02:14:16;14.30;99.90
1800;DHT22;919;48.274;12.292;2023-06-10T02:16:43;14.30;99.90
1800;DHT22;919;48.274;12.292;2023-06-10T02:19:10;14.20;99.90
1800;DHT22;919;48.274;12.292;2023-06-10T02:21:38;14.20;99.90
1800;DHT22;919;48.274;12.292;2023-06-10T02:24:06;14.00;99.90
1800;DHT22;919;48.274;12.292;2023-06-10T02:26:33;14.00;99.90
1800;DHT22;919;48.274;12.292;2023-06-10T02:29:01;14.00;99.90
1800;DHT22;919;48.274;12.292;2023-06-10T02:31:28;14.00;99.90
1800;DHT22;919;48.274;12.292;2023-06-10T02:33:55;14.00;99.90
1800;DHT22;919;48.274;12.292;2023-06-10T02:36:22;13.90;99.90
1800;DHT22;919;48.274;12.292;2023-06-10T02:38:49;13.90;99.90
1800;DHT22;919;48.274;12.292;2023-06-10T02:41:16;13.90;99.90
1800;DHT22;919;48.274;12.292;2023-06-10T02:43:43;13.80;99.90
1800;DHT22;919;48.274;12.292;2023-06-10T02:46:11;13.80;99.90
1800;DHT22;919;48.274;12.292;2023-06-10T02:48:41;13.90;99.90
1800;DHT22;919;48.274;12.292;2023-06-10T02:51:09;13.80;99.90
1800;DHT22;919;48.274;12.292;2023-06-10T02:53:36;13.70;99.90
1800;DHT22;919;48.274;12.292;2023-06-10T02:56:03;13.60;99.90
1800;DHT22;919;48.274;12.292;2023-06-10T02:58:29;13.60;99.90
1800;DHT22;919;48.274;12.292;2023-06-10T03:00:56;13.70;99.90
1800;DHT22;919;48.274;12.292;2023-06-10T03:03:25;13.60;99.90
1800;DHT22;919;48.274;12.292;2023-06-10T03:05:54;13.60;99.90
1800;DHT22;919;48.274;12.292;2023-06-10T03:08:22;13.50;99.90
1800;DHT22;919;48.274;12.292;2023-06-10T03:10:48;13.50;99.90
1800;DHT22;919;48.274;12.292;2023-06-10T03:13:15;13.50;99.90
1800;DHT22;919;48.274;12.292;2023-06-10T03:15:42;13.70;99.90
1800;DHT22;919;48.274;12.292;2023-06-10T03:18:10;13.70;99.90
1800;DHT22;919;48.274;12.292;2023-06-10T03:20:38;13.70;99.90
1800;DHT22;919;48.274;12.292;2023-06-10T03:23:05;13.70;99.90
1800;DHT22;919;48.274;12.292;2023-06-10T03:25:32;13.60;99.90
1800;DHT22;919;48.274;12.292;2023-06-10T03:27:59;13.60;99.90
1800;DHT22;919;48.274;12.292;2023-06-10T03:30:27;13.60;99.90
1800;DHT22;919;48.274;12.292;2023-06-10T03:32:53;13.60;99.90
1800;DHT22;919;48.274;12.292;2023-06-10T03:35:20;13.70;99.90
1800;DHT22;919;48.274;12.292;2023-06-10T03:37:49;13.70;99.90
1800;DHT22;919;48.274;12.292;2023-06-10T03:40:15;13.70;99.90
1800;DHT22;919;48.274;12.292;2023-06-10T03:42:42;13.70;99.90
1800;DHT22;919;48.274;12.292;2023-06-10T03:45:10;13.70;99.90
1800;DHT22;919;48.274;12.292;2023-06-10T03:47:37;13.80;99.90
1800;DHT22;919;48.274;12.292;2023-06-10T03:50:06;13.80;99.90
1800;DHT22;919;48.274;12.292;2023-06-10T03:52:34;13.90;99.90
1800;DHT22;919;48.274;12.292;2023-06-10T03:55:03;13.90;99.90
1800;DHT22;919;48.274;12.292;2023-06-10T03:57:30;14.00;99.90
1800;DHT22;919;48.274;12.292;2023-06-10T03:59:57;14.00;99.90
1800;DHT22;919;48.274;12.292;2023-06-10T04:02:24;14.20;99.90
1800;DHT22;919;48.274;12.292;2023-06-10T04:04:51;14.40;99.90
1800;DHT22;919;48.274;12.292;2023-06-10T04:07:17;14.40;99.90
1800;DHT22;919;48.274;12.292;2023-06-10T04:09:45;14.50;99.90
1800;DHT22;919;48.274;12.292;2023-06-10T04:12:14;14.60;99.90
1800;DHT22;919;48.274;12.292;2023-06-10T04:14:42;14.70;99.90
1800;DHT22;919;48.274;12.292;2023-06-10T04:17:08;14.90;99.90
1800;DHT22;919;48.274;12.292;2023-06-10T04:19:35;15.10;99.90
1800;DHT22;919;48.274;12.292;2023-06-10T04:22:02;15.20;99.90
1800;DHT22;919;48.274;12.292;2023-06-10T04:24:30;15.20;99.90
1800;DHT22;919;48.274;12.292;2023-06-10T04:26:57;15.30;99.90
1800;DHT22;919;48.274;12.292;2023-06-10T04:29:25;15.40;99.90
1800;DHT22;919;48.274;12.292;2023-06-10T04:31:52;15.60;99.90
1800;DHT22;919;48.274;12.292;2023-06-10T04:34:18;15.70;99.90
1800;DHT22;919;48.274;12.292;2023-06-10T04:36:45;15.80;99.90
1800;DHT22;919;48.274;12.292;2023-06-10T04:39:12;15.80;99.90
1800;DHT22;919;48.274;12.292;2023-06-10T04:41:38;15.90;99.90
1800;DHT22;919;48.274;12.292;2023-06-10T04:44:05;16.00;99.90
1800;DHT22;919;48.274;12.292;2023-06-10T04:46:33;16.10;99.90
1800;DHT22;919;48.274;12.292;2023-06-10T04:49:01;16.30;99.90
1800;DHT22;919;48.274;12.292;2023-06-10T04:51:27;16.30;99.90
1800;DHT22;919;48.274;12.292;2023-06-10T04:53:54;16.40;99.90
1800;DHT22;919;48.274;12.292;2023-06-10T04:56:21;16.50;99.90
1800;DHT22;919;48.274;12.292;2023-06-10T04:58:48;16.70;99.90
1800;DHT22;919;48.274;12.292;2023-06-10T05:01:15;16.90;99.90
1800;DHT22;919;48.274;12.292;2023-06-10T05:03:43;17.00;99.90
1800;DHT22;919;48.274;12.292;2023-06-10T05:06:09;17.20;99.90
1800;DHT22;919;48.274;12.292;2023-06-10T05:08:36;17.30;99.90
1800;DHT22;919;48.274;12.292;2023-06-10T05:11:03;17.40;99.90
1800;DHT22;919;48.274;12.292;2023-06-10T05:13:29;17.60;99.90
1800;DHT22;919;48.274;12.292;2023-06-10T05:15:56;17.80;99.90
1800;DHT22;919;48.274;12.292;2023-06-10T05:18:23;17.90;99.90
1800;DHT22;919;48.274;12.292;2023-06-10T05:20:51;18.10;99.90
1800;DHT22;919;48.274;12.292;2023-06-10T05:23:19;18.20;99.90
1800;DHT22;919;48.274;12.292;2023-06-10T05:25:46;18.40;99.90
1800;DHT22;919;48.274;12.292;2023-06-10T05:28:13;18.50;99.90
1800;DHT22;919;48.274;12.292;2023-06-10T05:30:40;18.70;99.90
1800;DHT22;919;48.274;12.292;2023-06-10T05:33:06;18.90;99.90
1800;DHT22;919;48.274;12.292;2023-06-10T05:35:33;18.90;99.90
1800;DHT22;919;48.274;12.292;2023-06-10T05:38:01;19.10;99.90
1800;DHT22;919;48.274;12.292;2023-06-10T05:40:28;19.10;99.90
1800;DHT22;919;48.274;12.292;2023-06-10T05:42:55;19.20;99.90
1800;DHT22;919;48.274;12.292;2023-06-10T05:45:22;19.30;99.90
1800;DHT22;919;48.274;12.292;2023-06-10T05:47:48;19.40;99.90
1800;DHT22;919;48.274;12.292;2023-06-10T05:50:15;19.50;99.90
1800;DHT22;919;48.274;12.292;2023-06-10T05:52:42;19.60;99.90
1800;DHT22;919;48.274;12.292;2023-06-10T05:55:10;19.70;99.90
1800;DHT22;919;48.274;12.292;2023-06-10T05:57:37;19.70;99.90
1800;DHT22;919;48.274;12.292;2023-06-10T06:00:05;19.80;99.90
1800;DHT22;919;48.274;12.292;2023-06-10T06:02:32;20.00;99.90
1800;DHT22;919;48.274;12.292;2023-06-10T06:04:58;20.10;99.90
1800;DHT22;919;48.274;12.292;2023-06-10T06:07:25;20.20;99.90
1800;DHT22;919;48.274;12.292;2023-06-10T06:09:52;20.20;99.90
1800;DHT22;919;48.274;12.292;2023-06-10T06:12:20;20.20;99.90
1800;DHT22;919;48.274;12.292;2023-06-10T06:14:46;20.30;99.90
1800;DHT22;919;48.274;12.292;2023-06-10T06:17:14;20.40;99.90
1800;DHT22;919;48.274;12.292;2023-06-10T06:19:41;20.40;99.90
1800;DHT22;919;48.274;12.292;2023-06-10T06:22:08;20.40;99.90
1800;DHT22;919;48.274;12.292;2023-06-10T06:24:35;20.50;99.90
1800;DHT22;919;48.274;12.292;2023-06-10T06:27:02;20.50;99.90
1800;DHT22;919;48.274;12.292;2023-06-10T06:29:30;20.60;99.90
1800;DHT22;919;48.274;12.292;2023-06-10T06:31:57;20.50;99.90
1800;DHT22;919;48.274;12.292;2023-06-10T06:34:24;20.40;99.90
1800;DHT22;919;48.274;12.292;2023-06-10T06:36:50;20.40;99.90
1800;DHT22;919;48.274;12.292;2023-06-10T06:39:17;20.40;99.90
1800;DHT22;919;48.274;12.292;2023-06-10T06:41:44;20.40;99.90
1800;DHT22;919;48.274;12.292;2023-06-10T06:44:10;20.50;99.90
1800;DHT22;919;48.274;12.292;2023-06-10T06:46:38;20.50;99.90
1800;DHT22;919;48.274;12.292;2023-06-10T06:49:05;20.50;99.90
1800;DHT22;919;48.274;12.292;2023-06-10T06:51:32;20.60;99.90
1800;DHT22;919;48.274;12.292;2023-06-10T06:53:58;20.70;99.90
1800;DHT22;919;48.274;12.292;2023-06-10T06:56:25;20.70;99.90
1800;DHT22;919;48.274;12.292;2023-06-10T06:58:53;20.60;99.90
1800;DHT22;919;48.274;12.292;2023-06-10T07:01:20;20.70;99.90
1800;DHT22;919;48.274;12.292;2023-06-10T07:03:48;20.80;99.90
1800;DHT22;919;48.274;12.292;2023-06-10T07:06:15;21.00;99.90
1800;DHT22;919;48.274;12.292;2023-06-10T07:08:41;21.10;99.90
1800;DHT22;919;48.274;12.292;2023-06-10T07:11:08;21.20;99.90
1800;DHT22;919;48.274;12.292;2023-06-10T07:13:35;21.30;99.90
1800;DHT22;919;48.274;12.292;2023-06-10T07:16:02;21.30;99.90
1800;DHT22;919;48.274;12.292;2023-06-10T07:18:29;21.30;99.90
1800;DHT22;919;48.274;12.292;2023-06-10T07:20:57;21.40;99.90
1800;DHT22;919;48.274;12.292;2023-06-10T07:23:23;21.50;99.90
1800;DHT22;919;48.274;12.292;2023-06-10T07:25:50;21.50;99.90
1800;DHT22;919;48.274;12.292;2023-06-10T07:28:17;21.50;99.90
1800;DHT22;919;48.274;12.292;2023-06-10T07:30:44;21.40;99.90
1800;DHT22;919;48.274;12.292;2023-06-10T07:33:10;21.30;99.90
1800;DHT22;919;48.274;12.292;2023-06-10T07:35:37;21.20;99.90
1800;DHT22;919;48.274;12.292;2023-06-10T07:38:05;21.10;99.90
1800;DHT22;919;48.274;12.292;2023-06-10T07:40:32;21.00;99.90
1800;DHT22;919;48.274;12.292;2023-06-10T07:42:59;20.80;99.90
1800;DHT22;919;48.274;12.292;2023-06-10T07:45:25;20.60;99.90
1800;DHT22;919;48.274;12.292;2023-06-10T07:47:52;20.50;99.90
1800;DHT22;919;48.274;12.292;2023-06-10T07:50:19;20.50;99.90
1800;DHT22;919;48.274;12.292;2023-06-10T07:52:46;20.30;99.90
1800;DHT22;919;48.274;12.292;2023-06-10T07:55:14;20.20;99.90
1800;DHT22;919;48.274;12.292;2023-06-10T07:57:41;20.20;99.90
1800;DHT22;919;48.274;12.292;2023-06-10T08:00:09;20.20;99.90
1800;DHT22;919;48.274;12.292;2023-06-10T08:02:36;20.20;99.90
1800;DHT22;919;48.274;12.292;2023-06-10T08:05:03;20.20;99.90
1800;DHT22;919;48.274;12.292;2023-06-10T08:07:30;20.20;99.90
1800;DHT22;919;48.274;12.292;2023-06-10T08:09:57;20.20;99.90
1800;DHT22;919;48.274;12.292;2023-06-10T08:12:25;20.30;99.90
1800;DHT22;919;48.274;12.292;2023-06-10T08:14:51;20.50;99.90
1800;DHT22;919;48.274;12.292;2023-06-10T08:17:19;20.80;99.90
1800;DHT22;919;48.274;12.292;2023-06-10T08:19:45;20.90;99.90
1800;DHT22;919;48.274;12.292;2023-06-10T08:22:12;21.20;99.90
1800;DHT22;919;48.274;12.292;2023-06-10T08:24:40;21.40;99.90
1800;DHT22;919;48.274;12.292;2023-06-10T08:27:06;21.60;99.90
1800;DHT22;919;48.274;12.292;2023-06-10T08:29:34;21.70;99.90
1800;DHT22;919;48.274;12.292;2023-06-10T08:32:02;21.80;99.90
1800;DHT22;919;48.274;12.292;2023-06-10T08:34:28;21.90;99.90
1800;DHT22;919;48.274;12.292;2023-06-10T08:36:55;22.00;99.90
1800;DHT22;919;48.274;12.292;2023-06-10T08:39:22;22.10;99.90
1800;DHT22;919;48.274;12.292;2023-06-10T08:41:57;22.30;99.90
1800;DHT22;919;48.274;12.292;2023-06-10T08:44:28;22.40;99.90
1800;DHT22;919;48.274;12.292;2023-06-10T08:46:59;22.50;99.90
1800;DHT22;919;48.274;12.292;2023-06-10T08:49:27;22.50;99.90
1800;DHT22;919;48.274;12.292;2023-06-10T08:51:59;22.60;99.90
1800;DHT22;919;48.274;12.292;2023-06-10T08:54:30;22.60;99.90
1800;DHT22;919;48.274;12.292;2023-06-10T08:56:59;22.50;99.90
1800;DHT22;919;48.274;12.292;2023-06-10T08:59:26;22.70;99.90
1800;DHT22;919;48.274;12.292;2023-06-10T09:01:53;22.80;99.90
1800;DHT22;919;48.274;12.292;2023-06-10T09:04:24;22.70;99.90
1800;DHT22;919;48.274;12.292;2023-06-10T09:06:51;22.80;99.90
1800;DHT22;919;48.274;12.292;2023-06-10T09:09:19;22.90;99.90
1800;DHT22;919;48.274;12.292;2023-06-10T09:11:46;23.20;99.90
1800;DHT22;919;48.274;12.292;2023-06-10T09:14:13;23.40;99.90
1800;DHT22;919;48.274;12.292;2023-06-10T09:16:42;23.30;99.90
1800;DHT22;919;48.274;12.292;2023-06-10T09:19:09;23.30;99.90
1800;DHT22;919;48.274;12.292;2023-06-10T09:21:38;23.50;99.90
1800;DHT22;919;48.274;12.292;2023-06-10T09:24:05;23.40;99.90
1800;DHT22;919;48.274;12.292;2023-06-10T09:26:34;23.60;99.90
1800;DHT22;919;48.274;12.292;2023-06-10T09:29:03;23.80;99.90
1800;DHT22;919;48.274;12.292;2023-06-10T09:31:32;24.10;99.90
1800;DHT22;919;48.274;12.292;2023-06-10T09:34:08;24.50;99.90
1800;DHT22;919;48.274;12.292;2023-06-10T09:36:38;24.70;99.90
1800;DHT22;919;48.274;12.292;2023-06-10T09:39:13;24.90;99.90
1800;DHT22;919;48.274;12.292;2023-06-10T09:41:42;25.10;99.90
1800;DHT22;919;48.274;12.292;2023-06-10T09:44:12;25.50;99.90
1800;DHT22;919;48.274;12.292;2023-06-10T09:46:43;25.80;99.90
1800;DHT22;919;48.274;12.292;2023-06-10T09:49:13;25.60;99.90
1800;DHT22;919;48.274;12.292;2023-06-10T09:51:52;25.60;99.90
1800;DHT22;919;48.274;12.292;2023-06-10T09:54:21;25.70;99.90
1800;DHT22;919;48.274;12.292;2023-06-10T09:56:49;25.90;99.90
1800;DHT22;919;48.274;12.292;2023-06-10T09:59:28;25.60;99.90
1800;DHT22;919;48.274;12.292;2023-06-10T10:01:57;25.20;99.90
1800;DHT22;919;48.274;12.292;2023-06-10T10:04:27;24.70;99.90
1800;DHT22;919;48.274;12.292;2023-06-10T10:06:56;24.10;99.90
1800;DHT22;919;48.274;12.292;2023-06-10T10:09:25;24.00;99.90
1800;DHT22;919;48.274;12.292;2023-06-10T10:11:52;23.80;99.90
1800;DHT22;919;48.274;12.292;2023-06-10T10:14:23;23.80;99.90
1800;DHT22;919;48.274;12.292;2023-06-10T10:16:52;23.50;99.90
1800;DHT22;919;48.274;12.292;2023-06-10T10:19:30;23.40;99.90
1800;DHT22;919;48.274;12.292;2023-06-10T10:22:04;23.80;99.90
1800;DHT22;919;48.274;12.292;2023-06-10T10:24:40;24.10;99.90
1800;DHT22;919;48.274;12.292;2023-06-10T10:27:17;24.60;99.90
1800;DHT22;919;48.274;12.292;2023-06-10T10:29:47;25.20;99.90
1800;DHT22;919;48.274;12.292;2023-06-10T10:32:16;25.20;99.90
1800;DHT22;919;48.274;12.292;2023-06-10T10:34:50;24.70;99.90
1800;DHT22;919;48.274;12.292;2023-06-10T10:37:22;24.30;99.90
1800;DHT22;919;48.274;12.292;2023-06-10T10:39:51;24.10;99.90
1800;DHT22;919;48.274;12.292;2023-06-10T10:42:19;24.10;99.90
1800;DHT22;919;48.274;12.292;2023-06-10T10:44:48;24.10;99.90
1800;DHT22;919;48.274;12.292;2023-06-10T10:47:21;23.80;99.90
1800;DHT22;919;48.274;12.292;2023-06-10T10:49:51;23.60;99.90
1800;DHT22;919;48.274;12.292;2023-06-10T10:52:19;23.10;99.90
1800;DHT22;919;48.274;12.292;2023-06-10T10:54:48;22.90;99.90
1800;DHT22;919;48.274;12.292;2023-06-10T10:57:17;22.80;99.90
1800;DHT22;919;48.274;12.292;2023-06-10T10:59:56;22.60;99.90
1800;DHT22;919;48.274;12.292;2023-06-10T11:02:42;22.40;99.90
1800;DHT22;919;48.274;12.292;2023-06-10T11:05:14;22.30;99.90
1800;DHT22;919;48.274;12.292;2023-06-10T11:07:52;22.40;99.90
1800;DHT22;919;48.274;12.292;2023-06-10T11:10:29;22.60;99.90
1800;DHT22;919;48.274;12.292;2023-06-10T11:12:57;22.80;99.90
1800;DHT22;919;48.274;12.292;2023-06-10T11:15:26;22.80;99.90
1800;DHT22;919;48.274;12.292;2023-06-10T11:18:18;22.90;99.90
1800;DHT22;919;48.274;12.292;2023-06-10T11:20:57;22.90;99.90
1800;DHT22;919;48.274;12.292;2023-06-10T11:23:37;23.00;99.90
1800;DHT22;919;48.274;12.292;2023-06-10T11:26:30;23.20;99.90
1800;DHT22;919;48.274;12.292;2023-06-10T11:29:08;23.40;99.90
1800;DHT22;919;48.274;12.292;2023-06-10T11:31:42;23.50;99.90
1800;DHT22;919;48.274;12.292;2023-06-10T11:34:10;23.50;99.90
1800;DHT22;919;48.274;12.292;2023-06-10T11:36:38;23.80;99.90
1800;DHT22;919;48.274;12.292;2023-06-10T11:39:08;24.00;99.90
1800;DHT22;919;48.274;12.292;2023-06-10T11:41:38;24.10;99.90
1800;DHT22;919;48.274;12.292;2023-06-10T11:44:09;24.10;99.90
1800;DHT22;919;48.274;12.292;2023-06-10T11:46:36;24.30;99.90
1800;DHT22;919;48.274;12.292;2023-06-10T11:49:06;24.40;99.90
1800;DHT22;919;48.274;12.292;2023-06-10T11:51:37;24.50;99.90
1800;DHT22;919;48.274;12.292;2023-06-10T11:54:06;24.50;99.90
1800;DHT22;919;48.274;12.292;2023-06-10T11:56:37;24.50;99.90
1800;DHT22;919;48.274;12.292;2023-06-10T11:59:06;24.50;99.90
1800;DHT22;919;48.274;12.292;2023-06-10T12:01:36;24.70;99.90
1800;DHT22;919;48.274;12.292;2023-06-10T12:04:05;24.90;99.90
1800;DHT22;919;48.274;12.292;2023-06-10T12:06:38;25.10;99.90
1800;DHT22;919;48.274;12.292;2023-06-10T12:09:06;25.40;99.90
1800;DHT22;919;48.274;12.292;2023-06-10T12:11:34;25.90;99.90
1800;DHT22;919;48.274;12.292;2023-06-10T12:14:04;26.30;99.90
1800;DHT22;919;48.274;12.292;2023-06-10T12:16:32;26.30;99.90
1800;DHT22;919;48.274;12.292;2023-06-10T12:19:04;26.60;99.90
1800;DHT22;919;48.274;12.292;2023-06-10T12:21:32;26.50;99.90
1800;DHT22;919;48.274;12.292;2023-06-10T12:24:05;26.60;99.90
1800;DHT22;919;48.274;12.292;2023-06-10T12:26:40;27.10;99.90
1800;DHT22;919;48.274;12.292;2023-06-10T12:29:20;27.50;99.90
1800;DHT22;919;48.274;12.292;2023-06-10T12:31:59;27.90;99.90
1800;DHT22;919;48.274;12.292;2023-06-10T12:34:31;28.30;99.90
1800;DHT22;919;48.274;12.292;2023-06-10T12:36:59;28.50;99.90
1800;DHT22;919;48.274;12.292;2023-06-10T12:39:27;28.80;99.90
1800;DHT22;919;48.274;12.292;2023-06-10T12:41:54;28.90;99.90
1800;DHT22;919;48.274;12.292;2023-06-10T12:44:32;28.90;99.90
1800;DHT22;919;48.274;12.292;2023-06-10T12:47:01;28.70;99.90
1800;DHT22;919;48.274;12.292;2023-06-10T12:49:30;28.90;99.90
1800;DHT22;919;48.274;12.292;2023-06-10T12:51:57;29.20;99.90
1800;DHT22;919;48.274;12.292;2023-06-10T12:54:24;29.20;99.90
1800;DHT22;919;48.274;12.292;2023-06-10T12:56:50;28.90;99.90
1800;DHT22;919;48.274;12.292;2023-06-10T12:59:19;28.50;99.90
1800;DHT22;919;48.274;12.292;2023-06-10T13:01:51;28.40;99.90
1800;DHT22;919;48.274;12.292;2023-06-10T13:04:19;28.20;99.90
1800;DHT22;919;48.274;12.292;2023-06-10T13:06:46;27.60;99.90
1800;DHT22;919;48.274;12.292;2023-06-10T13:09:14;26.90;99.90
1800;DHT22;919;48.274;12.292;2023-06-10T13:11:42;26.40;99.90
1800;DHT22;919;48.274;12.292;2023-06-10T13:14:10;25.90;99.90
1800;DHT22;919;48.274;12.292;2023-06-10T13:16:38;25.50;99.90
1800;DHT22;919;48.274;12.292;2023-06-10T13:19:07;25.20;99.90
1800;DHT22;919;48.274;12.292;2023-06-10T13:21:33;25.20;99.90
1800;DHT22;919;48.274;12.292;2023-06-10T13:24:01;25.20;99.90
1800;DHT22;919;48.274;12.292;2023-06-10T13:26:29;25.20;99.90
1800;DHT22;919;48.274;12.292;2023-06-10T13:28:56;25.30;99.90
1800;DHT22;919;48.274;12.292;2023-06-10T13:31:24;25.70;99.90
1800;DHT22;919;48.274;12.292;2023-06-10T13:33:51;26.00;99.90
1800;DHT22;919;48.274;12.292;2023-06-10T13:36:20;25.90;99.90
1800;DHT22;919;48.274;12.292;2023-06-10T13:38:46;26.00;99.90
1800;DHT22;919;48.274;12.292;2023-06-10T13:41:14;26.40;99.90
1800;DHT22;919;48.274;12.292;2023-06-10T13:43:43;26.40;99.90
1800;DHT22;919;48.274;12.292;2023-06-10T13:46:10;26.40;99.90
1800;DHT22;919;48.274;12.292;2023-06-10T13:48:38;26.60;99.90
1800;DHT22;919;48.274;12.292;2023-06-10T13:51:05;27.20;99.90
1800;DHT22;919;48.274;12.292;2023-06-10T13:53:36;27.70;99.90
1800;DHT22;919;48.274;12.292;2023-06-10T13:56:04;27.70;99.90
1800;DHT22;919;48.274;12.292;2023-06-10T13:58:31;27.80;99.90
1800;DHT22;919;48.274;12.292;2023-06-10T14:00:58;27.20;99.90
1800;DHT22;919;48.274;12.292;2023-06-10T14:03:26;26.30;99.90
1800;DHT22;919;48.274;12.292;2023-06-10T14:05:53;25.70;99.90
1800;DHT22;919;48.274;12.292;2023-06-10T14:08:20;25.30;99.90
1800;DHT22;919;48.274;12.292;2023-06-10T14:10:48;24.90;99.90
1800;DHT22;919;48.274;12.292;2023-06-10T14:13:16;24.70;99.90
1800;DHT22;919;48.274;12.292;2023-06-10T14:15:42;24.40;99.90
1800;DHT22;919;48.274;12.292;2023-06-10T14:18:10;24.30;99.90
1800;DHT22;919;48.274;12.292;2023-06-10T14:20:36;24.20;99.90
1800;DHT22;919;48.274;12.292;2023-06-10T14:23:03;24.10;99.90
1800;DHT22;919;48.274;12.292;2023-06-10T14:25:30;24.20;99.90
1800;DHT22;919;48.274;12.292;2023-06-10T14:27:58;24.30;99.90
1800;DHT22;919;48.274;12.292;2023-06-10T14:30:24;24.30;99.90
1800;DHT22;919;48.274;12.292;2023-06-10T14:32:51;24.40;99.90
1800;DHT22;919;48.274;12.292;2023-06-10T14:35:18;24.60;99.90
1800;DHT22;919;48.274;12.292;2023-06-10T14:37:45;24.90;99.90
1800;DHT22;919;48.274;12.292;2023-06-10T14:40:12;25.30;99.90
1800;DHT22;919;48.274;12.292;2023-06-10T14:42:39;25.30;99.90
1800;DHT22;919;48.274;12.292;2023-06-10T14:45:08;25.10;99.90
1800;DHT22;919;48.274;12.292;2023-06-10T14:47:35;25.10;99.90
1800;DHT22;919;48.274;12.292;2023-06-10T14:50:02;24.90;99.90
1800;DHT22;919;48.274;12.292;2023-06-10T14:52:29;25.20;99.90
1800;DHT22;919;48.274;12.292;2023-06-10T14:54:55;25.80;99.90
1800;DHT22;919;48.274;12.292;2023-06-10T14:57:22;26.30;99.90
1800;DHT22;919;48.274;12.292;2023-06-10T14:59:49;26.40;99.90
1800;DHT22;919;48.274;12.292;2023-06-10T15:02:17;26.50;99.90
1800;DHT22;919;48.274;12.292;2023-06-10T15:04:44;26.80;99.90
1800;DHT22;919;48.274;12.292;2023-06-10T15:07:10;27.10;99.90
1800;DHT22;919;48.274;12.292;2023-06-10T15:09:37;27.40;99.90
1800;DHT22;919;48.274;12.292;2023-06-10T15:12:04;27.60;99.90
1800;DHT22;919;48.274;12.292;2023-06-10T15:14:31;27.40;99.90
1800;DHT22;919;48.274;12.292;2023-06-10T15:17:02;27.30;99.90
1800;DHT22;919;48.274;12.292;2023-06-10T15:19:30;27.50;99.90
1800;DHT22;919;48.274;12.292;2023-06-10T15:21:57;27.40;99.90
1800;DHT22;919;48.274;12.292;2023-06-10T15:24:25;27.40;99.90
1800;DHT22;919;48.274;12.292;2023-06-10T15:26:52;27.30;99.90
1800;DHT22;919;48.274;12.292;2023-06-10T15:29:19;27.30;99.90
1800;DHT22;919;48.274;12.292;2023-06-10T15:31:48;27.20;99.90
1800;DHT22;919;48.274;12.292;2023-06-10T15:34:15;26.70;99.90
1800;DHT22;919;48.274;12.292;2023-06-10T15:36:43;26.40;99.90
1800;DHT22;919;48.274;12.292;2023-06-10T15:39:10;26.50;99.90
1800;DHT22;919;48.274;12.292;2023-06-10T15:41:37;26.40;99.90
1800;DHT22;919;48.274;12.292;2023-06-10T15:44:05;25.80;99.90
1800;DHT22;919;48.274;12.292;2023-06-10T15:46:32;25.10;99.90
1800;DHT22;919;48.274;12.292;2023-06-10T15:49:15;24.80;99.90
1800;DHT22;919;48.274;12.292;2023-06-10T15:52:28;25.10;99.90
1800;DHT22;919;48.274;12.292;2023-06-10T15:55:05;25.40;99.90
1800;DHT22;919;48.274;12.292;2023-06-10T15:57:32;25.40;99.90
1800;DHT22;919;48.274;12.292;2023-06-10T15:59:59;25.70;99.90
1800;DHT22;919;48.274;12.292;2023-06-10T16:02:25;26.00;99.90
1800;DHT22;919;48.274;12.292;2023-06-10T16:04:54;26.10;99.90
1800;DHT22;919;48.274;12.292;2023-06-10T16:07:23;25.90;99.90
1800;DHT22;919;48.274;12.292;2023-06-10T16:09:50;25.50;99.90